Terminal Aerodrome Forecast
Issued by NWS Des Moines, IA

Home | Current Version | Previous Version | Text Only | Print | Product List | Glossary On
Versions: 1 2 3 4 5 6 7 8 9 10 11 12 13 14 15 16 17 18 19 20 21 22 23 24 25 26 27 28 29 30 31 32 33 34 35 36 37 38 39 40 41 42
000
FTUS43 KDMX 301740
TAFDSM
TAF
KDSM 301740Z 3018/0118 07016G24KT P6SM VCSH OVC007
      TEMPO 3019/3023 4SM -TSRA OVC007CB
     FM010000 06012G22KT P6SM OVC010
     FM010500 15007KT P6SM VCSH OVC005
     FM011100 23007KT P6SM VCSH OVC007
     FM011600 29016G24KT P6SM OVC012=

USA.gov is the U.S. government's official web portal to all federal, state and local government web resources and services.